Bobby Golding — WDH2183 — position and weather

sailwx.info

Track history (hours):
 
Tides and Currents Weather Stations Pressure Air Temp Water Temp Dewpoint Dewpoint Depression Visibility Wind Speed Wind Dir Waves Ship Positions

Bobby Golding

Owner: GOLDING BARGE LINE, INC, VICKSBURG, MS. More information available from US FCC via Universal Licensing System and Coast Guard Vessel Documentation Center.

Last reported at 2018-Feb-19 07:22 UTC. Time now 2018-Feb-24 06:14 UTC.
Position N 28°57' W 095°20'.

Length 24 m.

Type: . MMSI: 367595180.

Date/timePositionNaut miles runAvg speedWind from/ knotsBaromVisibWave heightAir tempDewpointWater temp
2018-Feb-19 07:22N 28°57' W 095°20'0 0.0
2018-Feb-19 06:59N 28°57' W 095°20'0 0.0
2018-Feb-19 06:29N 28°57' W 095°20'0 0.0
2018-Feb-19 06:00N 28°57' W 095°20'0 0.0
2018-Feb-19 05:30N 28°57' W 095°20'0 0.0
2018-Feb-19 05:00N 28°57' W 095°20'0 0.0
2018-Feb-19 04:17N 28°57' W 095°20'6 0.6
2018-Feb-18 18:16N 29°01' W 095°15'2 5.8
2018-Feb-18 17:55N 29°02' W 095°14'3 6.0
2018-Feb-18 17:29N 29°05' W 095°13'4 5.7
2018-Feb-18 16:52N 29°08' W 095°11'1 0.8
2018-Feb-18 16:09N 29°08' W 095°10'0 0.3
2018-Feb-18 14:48N 29°08' W 095°10'1 3.3
2018-Feb-18 14:30N 29°09' W 095°09'4 4.0
2018-Feb-18 13:36N 29°11' W 095°05'2 0.5
2018-Feb-18 09:39N 29°12' W 095°03'0 0.0
2018-Feb-18 07:28N 29°12' W 095°03'14 5.1
2018-Feb-18 04:44N 29°20' W 094°50'8 2.6
2018-Feb-18 01:46N 29°25' W 094°44'0 0.0
2018-Feb-18 01:28N 29°25' W 094°44'1 0.5
2018-Feb-18 00:01N 29°26' W 094°43'1 5.3
2018-Feb-17 23:55N 29°26' W 094°43'2 2.0
2018-Feb-17 23:10N 29°27' W 094°41'0 2.1
2018-Feb-17 22:57N 29°27' W 094°41'1 1.8
2018-Feb-17 22:07N 29°28' W 094°39'3 4.2
2018-Feb-17 21:20N 29°29' W 094°36'7 3.1
2018-Feb-17 18:56N 29°33' W 094°28'2 3.4
2018-Feb-17 18:20N 29°34' W 094°26'0 0.1
2018-Feb-17 17:56N 29°34' W 094°26'0 0.1
2018-Feb-17 17:28N 29°34' W 094°26'0 0.0
2018-Feb-17 15:56N 29°34' W 094°26'1 2.3
2018-Feb-17 15:27N 29°34' W 094°25'2 4.0
2018-Feb-17 15:00N 29°36' W 094°24'2 3.2
2018-Feb-17 14:29N 29°36' W 094°22'1 2.7
2018-Feb-17 14:00N 29°37' W 094°21'1 2.7
2018-Feb-17 13:30N 29°37' W 094°20'1 2.9
2018-Feb-17 13:01N 29°38' W 094°18'2 3.7
2018-Feb-17 12:30N 29°39' W 094°17'0 0.1
2018-Feb-17 11:59N 29°39' W 094°17'0 0.0
2018-Feb-17 11:30N 29°39' W 094°17'0 0.0
2018-Feb-17 11:00N 29°39' W 094°17'0 0.0
2018-Feb-17 10:30N 29°39' W 094°17'0 0.0
2018-Feb-17 09:58N 29°39' W 094°17'0 0.0
2018-Feb-17 09:28N 29°39' W 094°17'0 0.0
2018-Feb-17 09:00N 29°39' W 094°17'0 0.0
2018-Feb-17 08:30N 29°39' W 094°17'0 0.0
2018-Feb-17 08:00N 29°39' W 094°17'0 0.0
2018-Feb-17 07:27N 29°39' W 094°17'0 0.0
2018-Feb-17 07:00N 29°39' W 094°17'0 0.0
2018-Feb-17 06:30N 29°39' W 094°17'0 0.0
2018-Feb-17 05:51N 29°39' W 094°17'0 0.0
2018-Feb-17 05:30N 29°39' W 094°17'0 0.0
2018-Feb-17 05:00N 29°39' W 094°17'0 0.0
2018-Feb-17 04:29N 29°39' W 094°17'0 0.0
2018-Feb-17 04:00N 29°39' W 094°17'0 0.0
2018-Feb-17 03:30N 29°39' W 094°17'0 0.0
2018-Feb-17 03:00N 29°39' W 094°17'0 0.0
2018-Feb-17 02:30N 29°39' W 094°17'0 0.0
2018-Feb-17 01:59N 29°39' W 094°17'0 0.0
2018-Feb-17 01:30N 29°39' W 094°17'0 0.0
2018-Feb-17 01:00N 29°39' W 094°17'0 0.1
2018-Feb-17 00:29N 29°39' W 094°17'3 5.2
2018-Feb-17 00:00N 29°40' W 094°14'3 6.0
2018-Feb-16 23:30N 29°41' W 094°11'3 5.8
2018-Feb-16 23:00N 29°43' W 094°08'3 5.8
2018-Feb-16 22:30N 29°44' W 094°05'3 6.3
2018-Feb-16 22:00N 29°46' W 094°02'3 5.9
2018-Feb-16 21:30N 29°48' W 094°00'3 6.2
2018-Feb-16 21:00N 29°50' W 093°57'4 8.6
2018-Feb-16 20:30N 29°54' W 093°54'4 8.6
2018-Feb-16 20:00N 29°57' W 093°52'1 2.1
2018-Feb-16 19:30N 29°58' W 093°51'1 1.1
2018-Feb-16 19:00N 29°58' W 093°51'0 0.0
2018-Feb-16 18:30N 29°58' W 093°51'0 0.0
2018-Feb-16 18:00N 29°58' W 093°51'0 0.0
2018-Feb-16 17:30N 29°58' W 093°51'1 1.0
2018-Feb-16 17:00N 29°58' W 093°51'0 0.6
2018-Feb-16 16:30N 29°58' W 093°51'3 5.9
2018-Feb-16 16:00N 29°59' W 093°55'3 5.5
2018-Feb-16 15:30N 30°01' W 093°57'1 2.2
2018-Feb-16 15:00N 30°00' W 093°59'0 0.0
2018-Feb-16 14:30N 30°00' W 093°59'0 0.0
2018-Feb-16 14:00N 30°00' W 093°59'0 0.0
2018-Feb-16 13:30N 30°00' W 093°59'0 0.0
2018-Feb-16 13:00N 30°00' W 093°59'0 0.0
2018-Feb-16 12:30N 30°00' W 093°59'0 0.0
2018-Feb-16 12:00N 30°00' W 093°59'0 0.0
2018-Feb-16 11:30N 30°00' W 093°59'0 0.0
2018-Feb-16 11:00N 30°00' W 093°59'0 0.0
2018-Feb-16 10:31N 30°00' W 093°59'0 0.0
2018-Feb-16 10:00N 30°00' W 093°59'0 0.0
2018-Feb-16 09:30N 30°00' W 093°59'0 0.0
2018-Feb-16 09:00N 30°00' W 093°59'0 0.0
2018-Feb-16 08:30N 30°00' W 093°59'0 0.0
2018-Feb-16 08:00N 30°00' W 093°59'0 0.0
2018-Feb-16 07:30N 30°00' W 093°59'0 0.0
2018-Feb-16 07:00N 30°00' W 093°59'0 0.0
2018-Feb-16 06:30N 30°00' W 093°59'0 0.0
2018-Feb-16 06:00N 30°00' W 093°59'0 0.0
2018-Feb-16 05:30N 30°00' W 093°59'0 0.0
2018-Feb-16 05:00N 30°00' W 093°59'0 0.0
2018-Feb-16 04:30N 30°00' W 093°59'0 0.0
2018-Feb-16 04:00N 30°00' W 093°59'0 0.0
2018-Feb-16 03:30N 30°00' W 093°59'0 0.0
2018-Feb-16 03:00N 30°00' W 093°59'0 0.0
2018-Feb-16 02:30N 30°00' W 093°59'0 0.0
2018-Feb-16 02:00N 30°00' W 093°59'0 0.0
2018-Feb-16 01:30N 30°00' W 093°59'0 0.0
2018-Feb-16 01:00N 30°00' W 093°59'0 0.0
2018-Feb-16 00:30N 30°00' W 093°59'0 0.0
2018-Feb-16 00:00N 30°00' W 093°59'0 0.0
2018-Feb-15 23:30N 30°00' W 093°59'0 0.0
2018-Feb-15 23:00N 30°00' W 093°59'0 0.0
2018-Feb-15 22:30N 30°00' W 093°59'0 0.0
2018-Feb-15 22:00N 30°00' W 093°59'0 0.6
2018-Feb-15 21:31N 30°01' W 093°59'1 1.5
2018-Feb-15 21:00N 30°01' W 093°59'0 0.1
2018-Feb-15 20:30N 30°01' W 093°59'0 0.0
2018-Feb-15 20:00N 30°01' W 093°59'0 0.0
2018-Feb-15 19:30N 30°01' W 093°59'0 0.0
2018-Feb-15 19:00N 30°01' W 093°59'0 0.0
2018-Feb-15 18:30N 30°01' W 093°59'0 0.0
2018-Feb-15 18:00N 30°01' W 093°59'0 0.0
2018-Feb-15 17:30N 30°01' W 093°59'0 0.0
2018-Feb-15 17:00N 30°01' W 093°59'0 0.0
2018-Feb-15 16:30N 30°01' W 093°59'0 0.6
2018-Feb-15 16:00N 30°01' W 093°59'0 0.0
2018-Feb-15 15:30N 30°01' W 093°59'0 0.0
2018-Feb-15 15:00N 30°01' W 093°59'0 0.0
2018-Feb-15 14:30N 30°01' W 093°59'0 0.0
2018-Feb-15 14:00N 30°01' W 093°59'0 0.0
2018-Feb-15 13:30N 30°01' W 093°59'0 0.6
2018-Feb-15 13:00N 30°01' W 093°59'0 0.0
2018-Feb-15 12:30N 30°01' W 093°59'0 0.0
2018-Feb-15 12:00N 30°01' W 093°59'0 0.0
2018-Feb-15 11:30N 30°01' W 093°59'0 0.0
2018-Feb-15 11:00N 30°01' W 093°59'0 0.0
2018-Feb-15 10:31N 30°01' W 093°59'0 0.0
2018-Feb-15 10:00N 30°01' W 093°59'0 0.0
2018-Feb-15 09:30N 30°01' W 093°59'0 0.0
2018-Feb-15 09:00N 30°01' W 093°59'0 0.0
2018-Feb-15 08:30N 30°01' W 093°59'0 0.0
2018-Feb-15 08:00N 30°01' W 093°59'0 0.0
2018-Feb-15 07:30N 30°01' W 093°59'0 0.0
2018-Feb-15 07:00N 30°01' W 093°59'0 0.0
2018-Feb-15 06:30N 30°01' W 093°59'0 0.0
2018-Feb-15 06:00N 30°01' W 093°59'0 0.0
2018-Feb-15 05:30N 30°01' W 093°59'0 0.0
2018-Feb-15 05:00N 30°01' W 093°59'0 0.0
2018-Feb-15 04:30N 30°01' W 093°59'0 0.0
2018-Feb-15 04:00N 30°01' W 093°59'0 0.0
2018-Feb-15 03:30N 30°01' W 093°59'0 0.0
2018-Feb-15 03:00N 30°01' W 093°59'0 0.0
2018-Feb-15 02:29N 30°01' W 093°59'0 0.0
2018-Feb-15 02:00N 30°01' W 093°59'0 0.0
2018-Feb-15 01:30N 30°01' W 093°59'0 0.0
2018-Feb-15 01:00N 30°01' W 093°59'0 0.0
2018-Feb-15 00:30N 30°01' W 093°59'0 0.0
2018-Feb-15 00:00N 30°01' W 093°59'0 0.0
2018-Feb-14 23:30N 30°01' W 093°59'0 0.0
2018-Feb-14 23:00N 30°01' W 093°59'0 0.6
2018-Feb-14 22:30N 30°01' W 093°59'0 0.6
2018-Feb-14 22:00N 30°01' W 093°59'0 0.0
2018-Feb-14 21:30N 30°01' W 093°59'0 0.0
2018-Feb-14 21:00N 30°01' W 093°59'0 0.0
2018-Feb-14 20:30N 30°01' W 093°59'0 0.0
2018-Feb-14 20:00N 30°01' W 093°59'0 0.0
2018-Feb-14 19:30N 30°01' W 093°59'0 0.0
2018-Feb-14 19:00N 30°01' W 093°59'0 0.0
2018-Feb-14 18:30N 30°01' W 093°59'0 0.0
2018-Feb-14 18:00N 30°01' W 093°59'0 0.0
2018-Feb-14 17:30N 30°01' W 093°59'0 0.0
2018-Feb-14 17:00N 30°01' W 093°59'0 0.0
2018-Feb-14 16:30N 30°01' W 093°59'0 0.0
2018-Feb-14 16:00N 30°01' W 093°59'0 0.0
2018-Feb-14 15:30N 30°01' W 093°59'0 0.0
2018-Feb-14 15:00N 30°01' W 093°59'0 0.0
2018-Feb-14 14:30N 30°01' W 093°59'0 0.0
2018-Feb-14 14:00N 30°01' W 093°59'0 0.0
2018-Feb-14 13:30N 30°01' W 093°59'0 0.0
2018-Feb-14 13:00N 30°01' W 093°59'0 0.0
2018-Feb-14 12:30N 30°01' W 093°59'0 0.0
2018-Feb-14 12:00N 30°01' W 093°59'0 0.0
2018-Feb-14 11:30N 30°01' W 093°59'0 0.0
2018-Feb-14 11:00N 30°01' W 093°59'0 0.0
2018-Feb-14 10:30N 30°01' W 093°59'0 0.0
2018-Feb-14 10:00N 30°01' W 093°59'0 0.0
2018-Feb-14 09:30N 30°01' W 093°59'0 0.0
2018-Feb-14 09:00N 30°01' W 093°59'0 0.0
2018-Feb-14 08:30N 30°01' W 093°59'0 0.7
2018-Feb-14 08:00N 30°01' W 093°59'1 1.8
2018-Feb-14 07:30N 30°01' W 093°59'1 1.8
2018-Feb-14 07:00N 30°01' W 093°58'0 0.8
2018-Feb-14 06:30N 30°01' W 093°57'3 6.3
2018-Feb-14 06:00N 29°59' W 093°54'3 5.7
2018-Feb-14 05:30N 29°58' W 093°51'4 7.8
2018-Feb-14 05:00N 29°54' W 093°54'4 8.0
2018-Feb-14 04:30N 29°51' W 093°57'3 5.7
2018-Feb-14 04:00N 29°49' W 093°59'2 4.5
2018-Feb-14 03:30N 29°48' W 094°01'2 4.7
2018-Feb-14 03:00N 29°46' W 094°03'2 4.6
2018-Feb-14 02:30N 29°45' W 094°05'2 4.5
2018-Feb-14 02:00N 29°43' W 094°07'2 4.5
2018-Feb-14 01:30N 29°42' W 094°09'2 4.3
2018-Feb-14 01:00N 29°41' W 094°11'2 4.5
2018-Feb-14 00:30N 29°40' W 094°14'2 4.6
2018-Feb-14 00:00N 29°39' W 094°16'2 4.3
2018-Feb-13 23:30N 29°38' W 094°18'1 2.9
2018-Feb-13 23:00N 29°37' W 094°20'2 3.9
2018-Feb-13 22:30N 29°37' W 094°22'2 3.5
2018-Feb-13 21:55N 29°36' W 094°24'6 3.8
2018-Feb-13 20:17N 29°32' W 094°29'  
Track history (hours):
 
Tides and Currents Weather Stations Pressure Air Temp Water Temp Dewpoint Dewpoint Depression Visibility Wind Speed Wind Dir Waves Ship Positions

Bobby Golding

Owner: GOLDING BARGE LINE, INC, VICKSBURG, MS. More information available from US FCC via Universal Licensing System and Coast Guard Vessel Documentation Center.

Last reported at 2018-Feb-19 07:22 UTC. Time now 2018-Feb-24 06:14 UTC.
Position N 28°57' W 095°20'.

Length 24 m.

Type: . MMSI: 367595180.

Date/timePositionNaut miles runAvg speedWind from/ knotsBaromVisibWave heightAir tempDewpointWater temp
2018-Feb-19 07:22N 28°57' W 095°20'0 0.0
2018-Feb-19 06:59N 28°57' W 095°20'0 0.0
2018-Feb-19 06:29N 28°57' W 095°20'0 0.0
2018-Feb-19 06:00N 28°57' W 095°20'0 0.0
2018-Feb-19 05:30N 28°57' W 095°20'0 0.0
2018-Feb-19 05:00N 28°57' W 095°20'0 0.0
2018-Feb-19 04:17N 28°57' W 095°20'6 0.6
2018-Feb-18 18:16N 29°01' W 095°15'2 5.8
2018-Feb-18 17:55N 29°02' W 095°14'3 6.0
2018-Feb-18 17:29N 29°05' W 095°13'4 5.7
2018-Feb-18 16:52N 29°08' W 095°11'1 0.8
2018-Feb-18 16:09N 29°08' W 095°10'0 0.3
2018-Feb-18 14:48N 29°08' W 095°10'1 3.3
2018-Feb-18 14:30N 29°09' W 095°09'4 4.0
2018-Feb-18 13:36N 29°11' W 095°05'2 0.5
2018-Feb-18 09:39N 29°12' W 095°03'0 0.0
2018-Feb-18 07:28N 29°12' W 095°03'14 5.1
2018-Feb-18 04:44N 29°20' W 094°50'8 2.6
2018-Feb-18 01:46N 29°25' W 094°44'0 0.0
2018-Feb-18 01:28N 29°25' W 094°44'1 0.5
2018-Feb-18 00:01N 29°26' W 094°43'1 5.3
2018-Feb-17 23:55N 29°26' W 094°43'2 2.0
2018-Feb-17 23:10N 29°27' W 094°41'0 2.1
2018-Feb-17 22:57N 29°27' W 094°41'1 1.8
2018-Feb-17 22:07N 29°28' W 094°39'3 4.2
2018-Feb-17 21:20N 29°29' W 094°36'7 3.1
2018-Feb-17 18:56N 29°33' W 094°28'2 3.4
2018-Feb-17 18:20N 29°34' W 094°26'0 0.1
2018-Feb-17 17:56N 29°34' W 094°26'0 0.1
2018-Feb-17 17:28N 29°34' W 094°26'0 0.0
2018-Feb-17 15:56N 29°34' W 094°26'1 2.3
2018-Feb-17 15:27N 29°34' W 094°25'2 4.0
2018-Feb-17 15:00N 29°36' W 094°24'2 3.2
2018-Feb-17 14:29N 29°36' W 094°22'1 2.7
2018-Feb-17 14:00N 29°37' W 094°21'1 2.7
2018-Feb-17 13:30N 29°37' W 094°20'1 2.9
2018-Feb-17 13:01N 29°38' W 094°18'2 3.7
2018-Feb-17 12:30N 29°39' W 094°17'0 0.1
2018-Feb-17 11:59N 29°39' W 094°17'0 0.0
2018-Feb-17 11:30N 29°39' W 094°17'0 0.0
2018-Feb-17 11:00N 29°39' W 094°17'0 0.0
2018-Feb-17 10:30N 29°39' W 094°17'0 0.0
2018-Feb-17 09:58N 29°39' W 094°17'0 0.0
2018-Feb-17 09:28N 29°39' W 094°17'0 0.0
2018-Feb-17 09:00N 29°39' W 094°17'0 0.0
2018-Feb-17 08:30N 29°39' W 094°17'0 0.0
2018-Feb-17 08:00N 29°39' W 094°17'0 0.0
2018-Feb-17 07:27N 29°39' W 094°17'0 0.0
2018-Feb-17 07:00N 29°39' W 094°17'0 0.0
2018-Feb-17 06:30N 29°39' W 094°17'0 0.0
2018-Feb-17 05:51N 29°39' W 094°17'0 0.0
2018-Feb-17 05:30N 29°39' W 094°17'0 0.0
2018-Feb-17 05:00N 29°39' W 094°17'0 0.0
2018-Feb-17 04:29N 29°39' W 094°17'0 0.0
2018-Feb-17 04:00N 29°39' W 094°17'0 0.0
2018-Feb-17 03:30N 29°39' W 094°17'0 0.0
2018-Feb-17 03:00N 29°39' W 094°17'0 0.0
2018-Feb-17 02:30N 29°39' W 094°17'0 0.0
2018-Feb-17 01:59N 29°39' W 094°17'0 0.0
2018-Feb-17 01:30N 29°39' W 094°17'0 0.0
2018-Feb-17 01:00N 29°39' W 094°17'0 0.1
2018-Feb-17 00:29N 29°39' W 094°17'3 5.2
2018-Feb-17 00:00N 29°40' W 094°14'3 6.0
2018-Feb-16 23:30N 29°41' W 094°11'3 5.8
2018-Feb-16 23:00N 29°43' W 094°08'3 5.8
2018-Feb-16 22:30N 29°44' W 094°05'3 6.3
2018-Feb-16 22:00N 29°46' W 094°02'3 5.9
2018-Feb-16 21:30N 29°48' W 094°00'3 6.2
2018-Feb-16 21:00N 29°50' W 093°57'4 8.6
2018-Feb-16 20:30N 29°54' W 093°54'4 8.6
2018-Feb-16 20:00N 29°57' W 093°52'1 2.1
2018-Feb-16 19:30N 29°58' W 093°51'1 1.1
2018-Feb-16 19:00N 29°58' W 093°51'0 0.0
2018-Feb-16 18:30N 29°58' W 093°51'0 0.0
2018-Feb-16 18:00N 29°58' W 093°51'0 0.0
2018-Feb-16 17:30N 29°58' W 093°51'1 1.0
2018-Feb-16 17:00N 29°58' W 093°51'0 0.6
2018-Feb-16 16:30N 29°58' W 093°51'3 5.9
2018-Feb-16 16:00N 29°59' W 093°55'3 5.5
2018-Feb-16 15:30N 30°01' W 093°57'1 2.2
2018-Feb-16 15:00N 30°00' W 093°59'0 0.0
2018-Feb-16 14:30N 30°00' W 093°59'0 0.0
2018-Feb-16 14:00N 30°00' W 093°59'0 0.0
2018-Feb-16 13:30N 30°00' W 093°59'0 0.0
2018-Feb-16 13:00N 30°00' W 093°59'0 0.0
2018-Feb-16 12:30N 30°00' W 093°59'0 0.0
2018-Feb-16 12:00N 30°00' W 093°59'0 0.0
2018-Feb-16 11:30N 30°00' W 093°59'0 0.0
2018-Feb-16 11:00N 30°00' W 093°59'0 0.0
2018-Feb-16 10:31N 30°00' W 093°59'0 0.0
2018-Feb-16 10:00N 30°00' W 093°59'0 0.0
2018-Feb-16 09:30N 30°00' W 093°59'0 0.0
2018-Feb-16 09:00N 30°00' W 093°59'0 0.0
2018-Feb-16 08:30N 30°00' W 093°59'0 0.0
2018-Feb-16 08:00N 30°00' W 093°59'0 0.0
2018-Feb-16 07:30N 30°00' W 093°59'0 0.0
2018-Feb-16 07:00N 30°00' W 093°59'0 0.0
2018-Feb-16 06:30N 30°00' W 093°59'0 0.0
2018-Feb-16 06:00N 30°00' W 093°59'0 0.0
2018-Feb-16 05:30N 30°00' W 093°59'0 0.0
2018-Feb-16 05:00N 30°00' W 093°59'0 0.0
2018-Feb-16 04:30N 30°00' W 093°59'0 0.0
2018-Feb-16 04:00N 30°00' W 093°59'0 0.0
2018-Feb-16 03:30N 30°00' W 093°59'0 0.0
2018-Feb-16 03:00N 30°00' W 093°59'0 0.0
2018-Feb-16 02:30N 30°00' W 093°59'0 0.0
2018-Feb-16 02:00N 30°00' W 093°59'0 0.0
2018-Feb-16 01:30N 30°00' W 093°59'0 0.0
2018-Feb-16 01:00N 30°00' W 093°59'0 0.0
2018-Feb-16 00:30N 30°00' W 093°59'0 0.0
2018-Feb-16 00:00N 30°00' W 093°59'0 0.0
2018-Feb-15 23:30N 30°00' W 093°59'0 0.0
2018-Feb-15 23:00N 30°00' W 093°59'0 0.0
2018-Feb-15 22:30N 30°00' W 093°59'0 0.0
2018-Feb-15 22:00N 30°00' W 093°59'0 0.6
2018-Feb-15 21:31N 30°01' W 093°59'1 1.5
2018-Feb-15 21:00N 30°01' W 093°59'0 0.1
2018-Feb-15 20:30N 30°01' W 093°59'0 0.0
2018-Feb-15 20:00N 30°01' W 093°59'0 0.0
2018-Feb-15 19:30N 30°01' W 093°59'0 0.0
2018-Feb-15 19:00N 30°01' W 093°59'0 0.0
2018-Feb-15 18:30N 30°01' W 093°59'0 0.0
2018-Feb-15 18:00N 30°01' W 093°59'0 0.0
2018-Feb-15 17:30N 30°01' W 093°59'0 0.0
2018-Feb-15 17:00N 30°01' W 093°59'0 0.0
2018-Feb-15 16:30N 30°01' W 093°59'0 0.6
2018-Feb-15 16:00N 30°01' W 093°59'0 0.0
2018-Feb-15 15:30N 30°01' W 093°59'0 0.0
2018-Feb-15 15:00N 30°01' W 093°59'0 0.0
2018-Feb-15 14:30N 30°01' W 093°59'0 0.0
2018-Feb-15 14:00N 30°01' W 093°59'0 0.0
2018-Feb-15 13:30N 30°01' W 093°59'0 0.6
2018-Feb-15 13:00N 30°01' W 093°59'0 0.0
2018-Feb-15 12:30N 30°01' W 093°59'0 0.0
2018-Feb-15 12:00N 30°01' W 093°59'0 0.0
2018-Feb-15 11:30N 30°01' W 093°59'0 0.0
2018-Feb-15 11:00N 30°01' W 093°59'0 0.0
2018-Feb-15 10:31N 30°01' W 093°59'0 0.0
2018-Feb-15 10:00N 30°01' W 093°59'0 0.0
2018-Feb-15 09:30N 30°01' W 093°59'0 0.0
2018-Feb-15 09:00N 30°01' W 093°59'0 0.0
2018-Feb-15 08:30N 30°01' W 093°59'0 0.0
2018-Feb-15 08:00N 30°01' W 093°59'0 0.0
2018-Feb-15 07:30N 30°01' W 093°59'0 0.0
2018-Feb-15 07:00N 30°01' W 093°59'0 0.0
2018-Feb-15 06:30N 30°01' W 093°59'0 0.0
2018-Feb-15 06:00N 30°01' W 093°59'0 0.0
2018-Feb-15 05:30N 30°01' W 093°59'0 0.0
2018-Feb-15 05:00N 30°01' W 093°59'0 0.0
2018-Feb-15 04:30N 30°01' W 093°59'0 0.0
2018-Feb-15 04:00N 30°01' W 093°59'0 0.0
2018-Feb-15 03:30N 30°01' W 093°59'0 0.0
2018-Feb-15 03:00N 30°01' W 093°59'0 0.0
2018-Feb-15 02:29N 30°01' W 093°59'0 0.0
2018-Feb-15 02:00N 30°01' W 093°59'0 0.0
2018-Feb-15 01:30N 30°01' W 093°59'0 0.0
2018-Feb-15 01:00N 30°01' W 093°59'0 0.0
2018-Feb-15 00:30N 30°01' W 093°59'0 0.0
2018-Feb-15 00:00N 30°01' W 093°59'0 0.0
2018-Feb-14 23:30N 30°01' W 093°59'0 0.0
2018-Feb-14 23:00N 30°01' W 093°59'0 0.6
2018-Feb-14 22:30N 30°01' W 093°59'0 0.6
2018-Feb-14 22:00N 30°01' W 093°59'0 0.0
2018-Feb-14 21:30N 30°01' W 093°59'0 0.0
2018-Feb-14 21:00N 30°01' W 093°59'0 0.0
2018-Feb-14 20:30N 30°01' W 093°59'0 0.0
2018-Feb-14 20:00N 30°01' W 093°59'0 0.0
2018-Feb-14 19:30N 30°01' W 093°59'0 0.0
2018-Feb-14 19:00N 30°01' W 093°59'0 0.0
2018-Feb-14 18:30N 30°01' W 093°59'0 0.0
2018-Feb-14 18:00N 30°01' W 093°59'0 0.0
2018-Feb-14 17:30N 30°01' W 093°59'0 0.0
2018-Feb-14 17:00N 30°01' W 093°59'0 0.0
2018-Feb-14 16:30N 30°01' W 093°59'0 0.0
2018-Feb-14 16:00N 30°01' W 093°59'0 0.0
2018-Feb-14 15:30N 30°01' W 093°59'0 0.0
2018-Feb-14 15:00N 30°01' W 093°59'0 0.0
2018-Feb-14 14:30N 30°01' W 093°59'0 0.0
2018-Feb-14 14:00N 30°01' W 093°59'0 0.0
2018-Feb-14 13:30N 30°01' W 093°59'0 0.0
2018-Feb-14 13:00N 30°01' W 093°59'0 0.0
2018-Feb-14 12:30N 30°01' W 093°59'0 0.0
2018-Feb-14 12:00N 30°01' W 093°59'0 0.0
2018-Feb-14 11:30N 30°01' W 093°59'0 0.0
2018-Feb-14 11:00N 30°01' W 093°59'0 0.0
2018-Feb-14 10:30N 30°01' W 093°59'0 0.0
2018-Feb-14 10:00N 30°01' W 093°59'0 0.0
2018-Feb-14 09:30N 30°01' W 093°59'0 0.0
2018-Feb-14 09:00N 30°01' W 093°59'0 0.0
2018-Feb-14 08:30N 30°01' W 093°59'0 0.7
2018-Feb-14 08:00N 30°01' W 093°59'1 1.8
2018-Feb-14 07:30N 30°01' W 093°59'1 1.8
2018-Feb-14 07:00N 30°01' W 093°58'0 0.8
2018-Feb-14 06:30N 30°01' W 093°57'3 6.3
2018-Feb-14 06:00N 29°59' W 093°54'3 5.7
2018-Feb-14 05:30N 29°58' W 093°51'4 7.8
2018-Feb-14 05:00N 29°54' W 093°54'4 8.0
2018-Feb-14 04:30N 29°51' W 093°57'3 5.7
2018-Feb-14 04:00N 29°49' W 093°59'2 4.5
2018-Feb-14 03:30N 29°48' W 094°01'2 4.7
2018-Feb-14 03:00N 29°46' W 094°03'2 4.6
2018-Feb-14 02:30N 29°45' W 094°05'2 4.5
2018-Feb-14 02:00N 29°43' W 094°07'2 4.5
2018-Feb-14 01:30N 29°42' W 094°09'2 4.3
2018-Feb-14 01:00N 29°41' W 094°11'2 4.5
2018-Feb-14 00:30N 29°40' W 094°14'2 4.6
2018-Feb-14 00:00N 29°39' W 094°16'2 4.3
2018-Feb-13 23:30N 29°38' W 094°18'1 2.9
2018-Feb-13 23:00N 29°37' W 094°20'2 3.9
2018-Feb-13 22:30N 29°37' W 094°22'2 3.5
2018-Feb-13 21:55N 29°36' W 094°24'6 3.8
2018-Feb-13 20:17N 29°32' W 094°29'  

Dump ship's entire track history